sensor_id;sensor_type;location;lat;lon;timestamp;pressure;altitude;pressure_sealevel;temperature;humidity
25080;BME280;13071;48.868;9.996;2022-07-19T00:00:24;96994.00;;;18.56;65.32
25080;BME280;13071;48.868;9.996;2022-07-19T00:02:51;96982.78;;;18.65;64.63
25080;BME280;13071;48.868;9.996;2022-07-19T00:05:18;96986.34;;;18.69;65.00
25080;BME280;13071;48.868;9.996;2022-07-19T00:07:46;96983.94;;;18.64;64.37
25080;BME280;13071;48.868;9.996;2022-07-19T00:10:15;96982.31;;;18.59;64.25
25080;BME280;13071;48.868;9.996;2022-07-19T00:12:42;96987.66;;;18.52;64.71
25080;BME280;13071;48.868;9.996;2022-07-19T00:15:11;96982.66;;;18.54;64.73
25080;BME280;13071;48.868;9.996;2022-07-19T00:17:41;96984.13;;;18.51;64.78
25080;BME280;13071;48.868;9.996;2022-07-19T00:20:09;96987.72;;;18.55;64.06
25080;BME280;13071;48.868;9.996;2022-07-19T00:22:35;96973.31;;;18.59;63.24
25080;BME280;13071;48.868;9.996;2022-07-19T00:25:03;96970.22;;;18.64;62.63
25080;BME280;13071;48.868;9.996;2022-07-19T00:27:30;96983.59;;;18.69;62.85
25080;BME280;13071;48.868;9.996;2022-07-19T00:29:57;96977.63;;;18.60;62.76
25080;BME280;13071;48.868;9.996;2022-07-19T00:32:24;96990.53;;;18.59;63.11
25080;BME280;13071;48.868;9.996;2022-07-19T00:34:52;96984.63;;;18.57;63.20
25080;BME280;13071;48.868;9.996;2022-07-19T00:37:19;96982.31;;;18.59;62.70
25080;BME280;13071;48.868;9.996;2022-07-19T00:39:45;96985.06;;;18.59;62.76
25080;BME280;13071;48.868;9.996;2022-07-19T00:42:12;96986.63;;;18.60;62.70
25080;BME280;13071;48.868;9.996;2022-07-19T00:44:40;96982.72;;;18.61;62.34
25080;BME280;13071;48.868;9.996;2022-07-19T00:47:06;96992.00;;;18.53;63.29
25080;BME280;13071;48.868;9.996;2022-07-19T00:49:33;96988.00;;;18.47;63.57
25080;BME280;13071;48.868;9.996;2022-07-19T00:52:02;96992.22;;;18.41;63.60
25080;BME280;13071;48.868;9.996;2022-07-19T00:54:30;96986.63;;;18.30;63.57
25080;BME280;13071;48.868;9.996;2022-07-19T00:57:00;96986.81;;;18.18;63.68
25080;BME280;13071;48.868;9.996;2022-07-19T00:59:28;96990.75;;;18.21;63.53
25080;BME280;13071;48.868;9.996;2022-07-19T01:01:55;96979.56;;;18.29;62.80
25080;BME280;13071;48.868;9.996;2022-07-19T01:04:22;96988.81;;;18.21;63.43
25080;BME280;13071;48.868;9.996;2022-07-19T01:06:49;96993.78;;;18.12;64.32
25080;BME280;13071;48.868;9.996;2022-07-19T01:09:17;96993.47;;;18.17;64.38
25080;BME280;13071;48.868;9.996;2022-07-19T01:11:44;96984.41;;;18.13;64.45
25080;BME280;13071;48.868;9.996;2022-07-19T01:14:10;96985.94;;;18.10;63.60
25080;BME280;13071;48.868;9.996;2022-07-19T01:16:43;96986.78;;;18.15;63.97
25080;BME280;13071;48.868;9.996;2022-07-19T01:19:09;96994.56;;;18.12;64.12
25080;BME280;13071;48.868;9.996;2022-07-19T01:21:37;96987.91;;;18.10;63.86
25080;BME280;13071;48.868;9.996;2022-07-19T01:24:04;96979.94;;;18.01;64.32
25080;BME280;13071;48.868;9.996;2022-07-19T01:26:31;96983.16;;;18.07;63.92
25080;BME280;13071;48.868;9.996;2022-07-19T01:28:58;96974.84;;;18.00;64.22
25080;BME280;13071;48.868;9.996;2022-07-19T01:31:24;96976.31;;;17.94;64.38
25080;BME280;13071;48.868;9.996;2022-07-19T01:33:51;96971.97;;;17.93;64.82
25080;BME280;13071;48.868;9.996;2022-07-19T01:36:18;96969.19;;;17.89;64.89
25080;BME280;13071;48.868;9.996;2022-07-19T01:38:45;96972.72;;;17.90;64.72
25080;BME280;13071;48.868;9.996;2022-07-19T01:41:12;96968.50;;;17.96;64.42
25080;BME280;13071;48.868;9.996;2022-07-19T01:43:39;96968.56;;;17.99;64.95
25080;BME280;13071;48.868;9.996;2022-07-19T01:46:06;96969.75;;;18.02;64.94
25080;BME280;13071;48.868;9.996;2022-07-19T01:48:33;96973.88;;;17.89;65.55
25080;BME280;13071;48.868;9.996;2022-07-19T01:51:00;96979.25;;;17.82;65.79
25080;BME280;13071;48.868;9.996;2022-07-19T01:53:26;96976.69;;;17.66;66.37
25080;BME280;13071;48.868;9.996;2022-07-19T01:55:54;96977.63;;;17.54;66.59
25080;BME280;13071;48.868;9.996;2022-07-19T01:58:21;96974.09;;;17.54;66.71
25080;BME280;13071;48.868;9.996;2022-07-19T02:00:48;96972.16;;;17.54;65.98
25080;BME280;13071;48.868;9.996;2022-07-19T02:03:14;96974.94;;;17.58;65.92
25080;BME280;13071;48.868;9.996;2022-07-19T02:05:41;96961.41;;;17.65;65.05
25080;BME280;13071;48.868;9.996;2022-07-19T02:08:08;96965.81;;;17.73;65.48
25080;BME280;13071;48.868;9.996;2022-07-19T02:10:35;96960.78;;;17.75;65.61
25080;BME280;13071;48.868;9.996;2022-07-19T02:13:03;96963.41;;;17.68;66.09
25080;BME280;13071;48.868;9.996;2022-07-19T02:15:30;96960.78;;;17.52;66.66
25080;BME280;13071;48.868;9.996;2022-07-19T02:17:56;96961.88;;;17.48;67.33
25080;BME280;13071;48.868;9.996;2022-07-19T02:20:23;96956.84;;;17.50;67.25
25080;BME280;13071;48.868;9.996;2022-07-19T02:22:50;96956.09;;;17.53;66.93
25080;BME280;13071;48.868;9.996;2022-07-19T02:25:16;96952.88;;;17.47;66.93
25080;BME280;13071;48.868;9.996;2022-07-19T02:27:43;96945.44;;;17.48;66.57
25080;BME280;13071;48.868;9.996;2022-07-19T02:30:12;96948.25;;;17.51;66.11
25080;BME280;13071;48.868;9.996;2022-07-19T02:32:39;96945.41;;;17.44;66.90
25080;BME280;13071;48.868;9.996;2022-07-19T02:35:08;96943.50;;;17.48;66.40
25080;BME280;13071;48.868;9.996;2022-07-19T02:37:36;96942.78;;;17.51;66.43
25080;BME280;13071;48.868;9.996;2022-07-19T02:40:03;96952.06;;;17.47;66.44
25080;BME280;13071;48.868;9.996;2022-07-19T02:42:30;96949.41;;;17.50;66.49
25080;BME280;13071;48.868;9.996;2022-07-19T02:44:57;96947.66;;;17.61;65.94
25080;BME280;13071;48.868;9.996;2022-07-19T02:47:24;96958.19;;;17.59;66.05
25080;BME280;13071;48.868;9.996;2022-07-19T02:49:51;96953.00;;;17.54;65.58
25080;BME280;13071;48.868;9.996;2022-07-19T02:52:18;96952.94;;;17.74;63.94
25080;BME280;13071;48.868;9.996;2022-07-19T02:54:45;96952.88;;;17.70;65.27
25080;BME280;13071;48.868;9.996;2022-07-19T02:57:11;96953.31;;;17.49;65.96
25080;BME280;13071;48.868;9.996;2022-07-19T02:59:38;96953.88;;;17.36;66.18
25080;BME280;13071;48.868;9.996;2022-07-19T03:02:05;96953.03;;;17.32;66.21
25080;BME280;13071;48.868;9.996;2022-07-19T03:04:33;96961.88;;;17.25;66.79
25080;BME280;13071;48.868;9.996;2022-07-19T03:06:59;96957.31;;;17.10;67.61
25080;BME280;13071;48.868;9.996;2022-07-19T03:09:26;96961.19;;;17.09;67.94
25080;BME280;13071;48.868;9.996;2022-07-19T03:11:52;96960.00;;;17.06;68.16
25080;BME280;13071;48.868;9.996;2022-07-19T03:14:19;96957.75;;;17.12;67.82
25080;BME280;13071;48.868;9.996;2022-07-19T03:16:46;96955.69;;;17.05;68.75
25080;BME280;13071;48.868;9.996;2022-07-19T03:19:12;96953.59;;;16.99;69.03
25080;BME280;13071;48.868;9.996;2022-07-19T03:21:40;96946.13;;;16.96;69.11
25080;BME280;13071;48.868;9.996;2022-07-19T03:24:07;96952.31;;;16.93;68.78
25080;BME280;13071;48.868;9.996;2022-07-19T03:26:33;96947.63;;;16.93;68.98
25080;BME280;13071;48.868;9.996;2022-07-19T03:29:00;96955.44;;;16.91;69.49
25080;BME280;13071;48.868;9.996;2022-07-19T03:31:27;96955.03;;;16.93;69.64
25080;BME280;13071;48.868;9.996;2022-07-19T03:33:53;96953.94;;;16.97;69.08
25080;BME280;13071;48.868;9.996;2022-07-19T03:36:20;96960.00;;;17.06;68.41
25080;BME280;13071;48.868;9.996;2022-07-19T03:38:48;96960.06;;;17.10;68.33
25080;BME280;13071;48.868;9.996;2022-07-19T03:41:14;96951.84;;;17.10;68.45
25080;BME280;13071;48.868;9.996;2022-07-19T03:43:41;96948.56;;;17.01;68.98
25080;BME280;13071;48.868;9.996;2022-07-19T03:46:08;96951.34;;;17.04;68.53
25080;BME280;13071;48.868;9.996;2022-07-19T03:48:34;96956.53;;;17.09;68.30
25080;BME280;13071;48.868;9.996;2022-07-19T03:51:01;96960.56;;;17.15;68.16
25080;BME280;13071;48.868;9.996;2022-07-19T03:53:27;96960.66;;;17.00;68.81
25080;BME280;13071;48.868;9.996;2022-07-19T03:55:55;96960.94;;;16.95;68.78
25080;BME280;13071;48.868;9.996;2022-07-19T03:58:22;96962.78;;;16.87;69.08
25080;BME280;13071;48.868;9.996;2022-07-19T04:00:49;96965.59;;;17.13;68.84
25080;BME280;13071;48.868;9.996;2022-07-19T04:03:15;96955.31;;;17.30;68.48
25080;BME280;13071;48.868;9.996;2022-07-19T04:05:42;96962.88;;;17.36;68.62
25080;BME280;13071;48.868;9.996;2022-07-19T04:08:09;96957.94;;;17.45;68.78
25080;BME280;13071;48.868;9.996;2022-07-19T04:10:35;96953.38;;;17.76;68.29
25080;BME280;13071;48.868;9.996;2022-07-19T04:13:04;96949.56;;;18.70;65.73
25080;BME280;13071;48.868;9.996;2022-07-19T04:15:30;96952.50;;;19.72;61.57
25080;BME280;13071;48.868;9.996;2022-07-19T04:17:57;96944.09;;;20.99;58.08
25080;BME280;13071;48.868;9.996;2022-07-19T04:20:23;96940.22;;;21.95;55.95
25080;BME280;13071;48.868;9.996;2022-07-19T04:22:50;96944.34;;;22.74;54.57
25080;BME280;13071;48.868;9.996;2022-07-19T04:25:17;96946.31;;;23.43;52.88
25080;BME280;13071;48.868;9.996;2022-07-19T04:27:43;96937.13;;;24.01;51.63
25080;BME280;13071;48.868;9.996;2022-07-19T04:30:11;96935.94;;;25.04;49.77
25080;BME280;13071;48.868;9.996;2022-07-19T04:32:38;96941.22;;;25.49;49.22
25080;BME280;13071;48.868;9.996;2022-07-19T04:35:05;96930.88;;;25.76;48.47
25080;BME280;13071;48.868;9.996;2022-07-19T04:37:32;96934.03;;;26.21;47.57
25080;BME280;13071;48.868;9.996;2022-07-19T04:39:59;96933.09;;;26.31;47.69
25080;BME280;13071;48.868;9.996;2022-07-19T04:42:25;96928.09;;;27.01;47.37
25080;BME280;13071;48.868;9.996;2022-07-19T04:44:52;96928.56;;;27.16;47.44
25080;BME280;13071;48.868;9.996;2022-07-19T04:47:20;96924.53;;;27.01;47.42
25080;BME280;13071;48.868;9.996;2022-07-19T04:49:46;96931.53;;;26.89;47.18
25080;BME280;13071;48.868;9.996;2022-07-19T04:52:13;96927.75;;;26.60;47.91
25080;BME280;13071;48.868;9.996;2022-07-19T04:54:40;96933.78;;;26.75;47.08
25080;BME280;13071;48.868;9.996;2022-07-19T04:57:06;96926.09;;;27.70;45.46
25080;BME280;13071;48.868;9.996;2022-07-19T04:59:33;96924.25;;;26.95;47.05
25080;BME280;13071;48.868;9.996;2022-07-19T05:01:59;96924.59;;;28.14;45.25
25080;BME280;13071;48.868;9.996;2022-07-19T05:04:27;96921.00;;;28.30;45.42
25080;BME280;13071;48.868;9.996;2022-07-19T05:06:54;96922.19;;;28.58;44.81
25080;BME280;13071;48.868;9.996;2022-07-19T05:09:23;96926.44;;;29.16;44.20
25080;BME280;13071;48.868;9.996;2022-07-19T05:11:50;96920.53;;;29.27;44.47
25080;BME280;13071;48.868;9.996;2022-07-19T05:14:17;96924.22;;;29.11;45.20
25080;BME280;13071;48.868;9.996;2022-07-19T05:16:44;96913.84;;;29.63;43.39
25080;BME280;13071;48.868;9.996;2022-07-19T05:19:11;96916.97;;;29.14;43.60
25080;BME280;13071;48.868;9.996;2022-07-19T05:21:39;96919.97;;;29.83;43.99
25080;BME280;13071;48.868;9.996;2022-07-19T05:24:06;96918.69;;;29.37;43.45
25080;BME280;13071;48.868;9.996;2022-07-19T05:26:32;96926.06;;;28.19;45.79
25080;BME280;13071;48.868;9.996;2022-07-19T05:28:59;96920.78;;;29.20;44.62
25080;BME280;13071;48.868;9.996;2022-07-19T05:31:25;96920.47;;;28.35;46.56
25080;BME280;13071;48.868;9.996;2022-07-19T05:33:52;96921.13;;;27.78;48.13
25080;BME280;13071;48.868;9.996;2022-07-19T05:36:19;96924.84;;;26.87;49.79
25080;BME280;13071;48.868;9.996;2022-07-19T05:38:47;96921.91;;;27.46;47.71
25080;BME280;13071;48.868;9.996;2022-07-19T05:41:14;96921.81;;;27.33;47.75
25080;BME280;13071;48.868;9.996;2022-07-19T05:43:42;96924.63;;;26.97;49.77
25080;BME280;13071;48.868;9.996;2022-07-19T05:46:09;96922.69;;;26.55;50.89
25080;BME280;13071;48.868;9.996;2022-07-19T05:48:36;96922.28;;;26.37;50.13
25080;BME280;13071;48.868;9.996;2022-07-19T05:51:02;96934.09;;;26.60;49.96
25080;BME280;13071;48.868;9.996;2022-07-19T05:53:29;96929.81;;;26.36;49.86
25080;BME280;13071;48.868;9.996;2022-07-19T05:55:57;96926.09;;;25.80;51.21
25080;BME280;13071;48.868;9.996;2022-07-19T05:58:23;96923.91;;;25.68;54.11
25080;BME280;13071;48.868;9.996;2022-07-19T06:00:50;96923.97;;;25.88;54.14
25080;BME280;13071;48.868;9.996;2022-07-19T06:03:35;96929.34;;;25.21;54.18
25080;BME280;13071;48.868;9.996;2022-07-19T06:06:01;96933.06;;;25.88;52.61
25080;BME280;13071;48.868;9.996;2022-07-19T06:08:32;96932.69;;;25.86;54.26
25080;BME280;13071;48.868;9.996;2022-07-19T06:10:59;96938.31;;;25.83;54.54
25080;BME280;13071;48.868;9.996;2022-07-19T06:13:26;96930.59;;;25.20;55.22
25080;BME280;13071;48.868;9.996;2022-07-19T06:15:53;96922.00;;;24.81;56.94
25080;BME280;13071;48.868;9.996;2022-07-19T06:18:19;96925.75;;;25.24;54.55
25080;BME280;13071;48.868;9.996;2022-07-19T06:20:46;96929.72;;;25.50;53.55
25080;BME280;13071;48.868;9.996;2022-07-19T06:23:13;96937.16;;;25.03;55.26
25080;BME280;13071;48.868;9.996;2022-07-19T06:25:39;96939.63;;;25.24;56.70
25080;BME280;13071;48.868;9.996;2022-07-19T06:28:07;96934.13;;;25.21;54.52
25080;BME280;13071;48.868;9.996;2022-07-19T06:30:34;96931.94;;;25.35;53.69
25080;BME280;13071;48.868;9.996;2022-07-19T06:33:01;96926.69;;;25.68;53.30
25080;BME280;13071;48.868;9.996;2022-07-19T06:35:27;96927.66;;;25.04;54.46
25080;BME280;13071;48.868;9.996;2022-07-19T06:37:54;96929.69;;;25.77;53.90
25080;BME280;13071;48.868;9.996;2022-07-19T06:40:20;96930.78;;;25.83;56.00
25080;BME280;13071;48.868;9.996;2022-07-19T06:42:47;96921.66;;;26.29;51.09
25080;BME280;13071;48.868;9.996;2022-07-19T06:45:15;96917.38;;;26.64;46.57
25080;BME280;13071;48.868;9.996;2022-07-19T06:47:42;96912.88;;;26.90;45.39
25080;BME280;13071;48.868;9.996;2022-07-19T06:50:08;96921.81;;;27.17;45.59
25080;BME280;13071;48.868;9.996;2022-07-19T06:52:35;96903.84;;;27.38;44.07
25080;BME280;13071;48.868;9.996;2022-07-19T06:55:02;96907.00;;;27.56;45.08
25080;BME280;13071;48.868;9.996;2022-07-19T06:57:28;96908.13;;;27.75;43.59
25080;BME280;13071;48.868;9.996;2022-07-19T06:59:55;96904.63;;;27.87;43.48
25080;BME280;13071;48.868;9.996;2022-07-19T07:02:23;96908.44;;;27.93;42.49
25080;BME280;13071;48.868;9.996;2022-07-19T07:04:49;96907.72;;;28.05;42.70
25080;BME280;13071;48.868;9.996;2022-07-19T07:07:16;96911.63;;;28.08;42.52
25080;BME280;13071;48.868;9.996;2022-07-19T07:09:43;96912.41;;;28.08;41.82
25080;BME280;13071;48.868;9.996;2022-07-19T07:12:10;96914.06;;;28.22;41.72
25080;BME280;13071;48.868;9.996;2022-07-19T07:14:36;96915.22;;;28.37;41.28
25080;BME280;13071;48.868;9.996;2022-07-19T07:17:03;96910.69;;;28.14;42.16
25080;BME280;13071;48.868;9.996;2022-07-19T07:19:31;96902.09;;;28.38;40.90
25080;BME280;13071;48.868;9.996;2022-07-19T07:21:57;96910.28;;;28.28;40.96
25080;BME280;13071;48.868;9.996;2022-07-19T07:24:26;96905.94;;;28.27;41.26
25080;BME280;13071;48.868;9.996;2022-07-19T07:26:53;96904.88;;;28.38;40.58
25080;BME280;13071;48.868;9.996;2022-07-19T07:29:20;96899.69;;;28.52;40.38
25080;BME280;13071;48.868;9.996;2022-07-19T07:31:46;96895.16;;;28.29;40.59
25080;BME280;13071;48.868;9.996;2022-07-19T07:34:13;96891.44;;;28.49;40.21
25080;BME280;13071;48.868;9.996;2022-07-19T07:36:41;96892.69;;;28.60;40.79
25080;BME280;13071;48.868;9.996;2022-07-19T07:39:09;96896.22;;;28.90;41.25
25080;BME280;13071;48.868;9.996;2022-07-19T07:41:36;96897.13;;;28.99;40.57
25080;BME280;13071;48.868;9.996;2022-07-19T07:44:03;96891.91;;;29.14;39.66
25080;BME280;13071;48.868;9.996;2022-07-19T07:46:30;96891.09;;;29.26;38.60
25080;BME280;13071;48.868;9.996;2022-07-19T07:48:57;96888.78;;;29.25;39.06
25080;BME280;13071;48.868;9.996;2022-07-19T07:51:24;96882.34;;;29.40;38.13
25080;BME280;13071;48.868;9.996;2022-07-19T07:53:52;96894.81;;;29.48;38.70
25080;BME280;13071;48.868;9.996;2022-07-19T07:56:18;96897.34;;;29.55;36.79
25080;BME280;13071;48.868;9.996;2022-07-19T07:58:45;96889.34;;;29.45;37.91
25080;BME280;13071;48.868;9.996;2022-07-19T08:01:12;96886.19;;;29.55;37.12
25080;BME280;13071;48.868;9.996;2022-07-19T08:03:38;96889.22;;;29.36;36.79
25080;BME280;13071;48.868;9.996;2022-07-19T08:06:05;96897.16;;;29.50;37.82
25080;BME280;13071;48.868;9.996;2022-07-19T08:08:31;96896.13;;;29.69;37.00
25080;BME280;13071;48.868;9.996;2022-07-19T08:10:59;96896.56;;;29.68;37.04
25080;BME280;13071;48.868;9.996;2022-07-19T08:13:26;96892.75;;;29.74;36.28
25080;BME280;13071;48.868;9.996;2022-07-19T08:15:53;96884.97;;;29.56;36.18
25080;BME280;13071;48.868;9.996;2022-07-19T08:18:19;96883.19;;;29.63;36.98
25080;BME280;13071;48.868;9.996;2022-07-19T08:20:46;96880.00;;;29.39;36.99
25080;BME280;13071;48.868;9.996;2022-07-19T08:23:13;96878.09;;;29.48;36.63
25080;BME280;13071;48.868;9.996;2022-07-19T08:25:40;96878.09;;;29.36;36.63
25080;BME280;13071;48.868;9.996;2022-07-19T08:28:08;96874.06;;;29.37;36.66
25080;BME280;13071;48.868;9.996;2022-07-19T08:30:35;96873.03;;;29.69;36.80
25080;BME280;13071;48.868;9.996;2022-07-19T08:33:01;96865.44;;;29.69;36.32
25080;BME280;13071;48.868;9.996;2022-07-19T08:35:32;96870.09;;;29.72;37.25
25080;BME280;13071;48.868;9.996;2022-07-19T08:37:58;96870.94;;;29.60;37.15
25080;BME280;13071;48.868;9.996;2022-07-19T08:40:25;96862.91;;;29.96;36.41
25080;BME280;13071;48.868;9.996;2022-07-19T08:42:53;96865.06;;;29.92;36.78
25080;BME280;13071;48.868;9.996;2022-07-19T08:45:22;96868.97;;;30.17;36.23
25080;BME280;13071;48.868;9.996;2022-07-19T08:47:49;96864.25;;;30.05;37.23
25080;BME280;13071;48.868;9.996;2022-07-19T08:50:16;96872.66;;;30.48;36.60
25080;BME280;13071;48.868;9.996;2022-07-19T08:52:43;96865.94;;;30.24;35.19
25080;BME280;13071;48.868;9.996;2022-07-19T08:55:10;96870.97;;;29.94;35.56
25080;BME280;13071;48.868;9.996;2022-07-19T08:57:37;96879.22;;;29.98;35.23
25080;BME280;13071;48.868;9.996;2022-07-19T09:00:23;96875.41;;;30.26;34.72
25080;BME280;13071;48.868;9.996;2022-07-19T09:02:55;96877.03;;;30.36;35.93
25080;BME280;13071;48.868;9.996;2022-07-19T09:05:22;96865.94;;;30.45;34.58
25080;BME280;13071;48.868;9.996;2022-07-19T09:08:04;96871.69;;;30.29;35.05
25080;BME280;13071;48.868;9.996;2022-07-19T09:10:32;96876.78;;;30.22;34.70
25080;BME280;13071;48.868;9.996;2022-07-19T09:13:01;96868.47;;;30.09;34.22
25080;BME280;13071;48.868;9.996;2022-07-19T09:15:44;96872.38;;;30.33;36.11
25080;BME280;13071;48.868;9.996;2022-07-19T09:18:14;96865.56;;;30.00;35.38
25080;BME280;13071;48.868;9.996;2022-07-19T09:20:42;96873.38;;;30.05;34.89
25080;BME280;13071;48.868;9.996;2022-07-19T09:23:09;96876.06;;;30.30;35.34
25080;BME280;13071;48.868;9.996;2022-07-19T09:25:38;96880.78;;;30.21;35.44
25080;BME280;13071;48.868;9.996;2022-07-19T09:28:05;96875.88;;;30.68;34.97
25080;BME280;13071;48.868;9.996;2022-07-19T09:30:33;96876.91;;;30.83;34.26
25080;BME280;13071;48.868;9.996;2022-07-19T09:33:08;96872.75;;;30.66;34.16
25080;BME280;13071;48.868;9.996;2022-07-19T09:35:36;96881.97;;;30.76;34.02
25080;BME280;13071;48.868;9.996;2022-07-19T09:38:23;96883.78;;;30.70;34.03
25080;BME280;13071;48.868;9.996;2022-07-19T09:40:53;96875.84;;;30.90;34.70
25080;BME280;13071;48.868;9.996;2022-07-19T09:43:21;96877.44;;;30.69;34.09
25080;BME280;13071;48.868;9.996;2022-07-19T09:45:51;96870.59;;;30.92;33.90
25080;BME280;13071;48.868;9.996;2022-07-19T09:48:19;96877.50;;;31.09;32.92
25080;BME280;13071;48.868;9.996;2022-07-19T09:50:46;96871.50;;;31.20;33.13
25080;BME280;13071;48.868;9.996;2022-07-19T09:53:17;96868.84;;;31.16;34.25
25080;BME280;13071;48.868;9.996;2022-07-19T09:55:45;96866.81;;;30.86;34.88
25080;BME280;13071;48.868;9.996;2022-07-19T09:58:12;96866.97;;;30.61;34.45
25080;BME280;13071;48.868;9.996;2022-07-19T10:00:39;96866.06;;;30.95;34.02
25080;BME280;13071;48.868;9.996;2022-07-19T10:03:09;96861.53;;;31.10;34.76
25080;BME280;13071;48.868;9.996;2022-07-19T10:05:38;96863.03;;;31.02;34.32
25080;BME280;13071;48.868;9.996;2022-07-19T10:08:05;96854.41;;;30.87;34.27
25080;BME280;13071;48.868;9.996;2022-07-19T10:10:33;96861.72;;;30.94;33.83
25080;BME280;13071;48.868;9.996;2022-07-19T10:13:00;96849.75;;;31.24;34.52
25080;BME280;13071;48.868;9.996;2022-07-19T10:15:31;96855.09;;;31.40;33.27
25080;BME280;13071;48.868;9.996;2022-07-19T10:18:09;96856.03;;;31.37;33.57
25080;BME280;13071;48.868;9.996;2022-07-19T10:20:39;96843.69;;;31.16;33.32
25080;BME280;13071;48.868;9.996;2022-07-19T10:23:08;96838.72;;;31.20;34.21
25080;BME280;13071;48.868;9.996;2022-07-19T10:25:40;96846.88;;;31.37;33.96
25080;BME280;13071;48.868;9.996;2022-07-19T10:28:26;96847.84;;;31.52;33.67
25080;BME280;13071;48.868;9.996;2022-07-19T10:30:53;96844.16;;;31.73;33.32
25080;BME280;13071;48.868;9.996;2022-07-19T10:33:30;96842.91;;;31.92;33.28
25080;BME280;13071;48.868;9.996;2022-07-19T10:36:36;96848.22;;;31.99;33.16
25080;BME280;13071;48.868;9.996;2022-07-19T10:39:22;96830.34;;;32.06;32.86
25080;BME280;13071;48.868;9.996;2022-07-19T10:42:15;96835.91;;;31.88;33.49
25080;BME280;13071;48.868;9.996;2022-07-19T10:45:12;96836.06;;;31.57;33.29
25080;BME280;13071;48.868;9.996;2022-07-19T10:48:02;96826.13;;;31.65;33.27
25080;BME280;13071;48.868;9.996;2022-07-19T10:50:57;96822.06;;;31.57;33.63
25080;BME280;13071;48.868;9.996;2022-07-19T10:53:58;96822.88;;;31.66;32.36
25080;BME280;13071;48.868;9.996;2022-07-19T10:56:41;96827.06;;;31.80;33.08
25080;BME280;13071;48.868;9.996;2022-07-19T10:59:09;96824.28;;;31.80;34.19
25080;BME280;13071;48.868;9.996;2022-07-19T11:01:38;96820.41;;;31.96;32.90
25080;BME280;13071;48.868;9.996;2022-07-19T11:04:25;96823.19;;;32.23;32.89
25080;BME280;13071;48.868;9.996;2022-07-19T11:07:11;96819.75;;;32.10;32.74
25080;BME280;13071;48.868;9.996;2022-07-19T11:09:42;96816.03;;;32.13;33.19
25080;BME280;13071;48.868;9.996;2022-07-19T11:12:27;96813.41;;;31.91;34.01
25080;BME280;13071;48.868;9.996;2022-07-19T11:14:54;96807.78;;;31.64;33.74
25080;BME280;13071;48.868;9.996;2022-07-19T11:17:21;96795.81;;;32.00;32.67
25080;BME280;13071;48.868;9.996;2022-07-19T11:20:03;96801.88;;;32.07;32.90
25080;BME280;13071;48.868;9.996;2022-07-19T11:22:36;96802.97;;;31.92;32.45
25080;BME280;13071;48.868;9.996;2022-07-19T11:25:05;96782.78;;;31.97;33.38
25080;BME280;13071;48.868;9.996;2022-07-19T11:27:32;96787.88;;;31.89;33.76
25080;BME280;13071;48.868;9.996;2022-07-19T11:30:02;96782.47;;;31.77;33.12
25080;BME280;13071;48.868;9.996;2022-07-19T11:32:29;96777.63;;;31.95;34.15
25080;BME280;13071;48.868;9.996;2022-07-19T11:34:57;96773.41;;;32.27;32.31
25080;BME280;13071;48.868;9.996;2022-07-19T11:37:26;96777.94;;;32.16;33.27
25080;BME280;13071;48.868;9.996;2022-07-19T11:39:53;96776.38;;;32.14;32.60
25080;BME280;13071;48.868;9.996;2022-07-19T11:42:32;96757.56;;;32.15;32.96
25080;BME280;13071;48.868;9.996;2022-07-19T11:45:07;96770.97;;;32.11;32.77
25080;BME280;13071;48.868;9.996;2022-07-19T11:47:34;96769.53;;;32.25;32.55
25080;BME280;13071;48.868;9.996;2022-07-19T11:50:05;96774.28;;;32.42;32.98
25080;BME280;13071;48.868;9.996;2022-07-19T11:52:46;96769.06;;;32.26;34.46
25080;BME280;13071;48.868;9.996;2022-07-19T11:55:13;96762.34;;;32.33;34.55
25080;BME280;13071;48.868;9.996;2022-07-19T11:57:42;96760.66;;;32.26;33.98
25080;BME280;13071;48.868;9.996;2022-07-19T12:00:09;96763.41;;;32.44;34.26
25080;BME280;13071;48.868;9.996;2022-07-19T12:02:53;96754.69;;;32.42;32.73
25080;BME280;13071;48.868;9.996;2022-07-19T12:05:21;96751.75;;;32.37;32.26
25080;BME280;13071;48.868;9.996;2022-07-19T12:07:49;96747.69;;;32.38;32.99
25080;BME280;13071;48.868;9.996;2022-07-19T12:10:36;96738.38;;;32.41;33.00
25080;BME280;13071;48.868;9.996;2022-07-19T12:13:06;96741.91;;;32.50;33.72
25080;BME280;13071;48.868;9.996;2022-07-19T12:15:44;96734.97;;;32.28;34.41
25080;BME280;13071;48.868;9.996;2022-07-19T12:18:12;96738.06;;;32.39;33.57
25080;BME280;13071;48.868;9.996;2022-07-19T12:20:39;96741.09;;;32.68;33.58
25080;BME280;13071;48.868;9.996;2022-07-19T12:23:14;96739.16;;;32.41;33.58
25080;BME280;13071;48.868;9.996;2022-07-19T12:25:41;96729.34;;;32.46;33.41
25080;BME280;13071;48.868;9.996;2022-07-19T12:28:09;96730.75;;;32.41;33.60
25080;BME280;13071;48.868;9.996;2022-07-19T12:30:36;96721.72;;;32.46;32.79
25080;BME280;13071;48.868;9.996;2022-07-19T12:33:08;96707.47;;;32.59;33.15
25080;BME280;13071;48.868;9.996;2022-07-19T12:35:43;96720.25;;;32.69;32.94
25080;BME280;13071;48.868;9.996;2022-07-19T12:38:10;96719.44;;;32.69;33.00
25080;BME280;13071;48.868;9.996;2022-07-19T12:40:39;96713.84;;;32.69;33.61
25080;BME280;13071;48.868;9.996;2022-07-19T12:43:06;96705.06;;;32.85;32.66
25080;BME280;13071;48.868;9.996;2022-07-19T12:45:37;96702.66;;;32.69;32.97
25080;BME280;13071;48.868;9.996;2022-07-19T12:48:05;96707.09;;;32.84;33.19
25080;BME280;13071;48.868;9.996;2022-07-19T12:50:34;96710.28;;;32.92;32.06
25080;BME280;13071;48.868;9.996;2022-07-19T12:53:03;96704.19;;;32.70;31.92
25080;BME280;13071;48.868;9.996;2022-07-19T12:55:32;96696.81;;;32.81;31.80
25080;BME280;13071;48.868;9.996;2022-07-19T12:57:59;96699.59;;;32.90;31.92
25080;BME280;13071;48.868;9.996;2022-07-19T13:00:29;96675.00;;;32.85;31.86
25080;BME280;13071;48.868;9.996;2022-07-19T13:03:00;96698.56;;;33.03;32.01
25080;BME280;13071;48.868;9.996;2022-07-19T13:05:28;96698.03;;;33.13;31.35
25080;BME280;13071;48.868;9.996;2022-07-19T13:07:56;96688.31;;;32.99;31.10